Portada
METAR-TAF:

METAR-TAF

Aeropuertos :

Barcelona, Venezuela

Aeropuerto Internacional General José Antonio Anzoátegui

latitud: 10-07N, longitud: 064-41W, altitud: 7 m

METAR: falta

Hora: 19:36 (23:36 UTC)

Pronóstico

El informe se hizo hace 7 horas y 36 minutos, a las 16:00 UTC
Pronóstico válido del 20 a las 18 UTC al 21 a las 18 UTC
Viento 5 kt del este-noreste
Visibilidad 10 km o más
Nubes dispersas a una altura de 1600 ft
Evolucionando progresivamente
del 20 a las 18 UTC al 20 a las 22 UTC
Viento 5 kt del este

TAF: SVBC 201600Z 2018/2118 07005KT 9999 SCT016 TX33/19Z TN24/08Z BECMG 2018/2022 09005KT

Observaciones y pronósticos meteorológicos de más de 4000 aeropuertos (mensajes METAR y TAF).

Los puntos amarillos y rojos representan las estaciones disponibles.

Ponga el ratón en el punto deseado para ver el nombre de la estación.

Haga clic para ver las observaciones y los pronósticos meteorológicos.

Para cambiar el mapa : haga clic en los botones verdes con una cruz de color negro para hacer un zoom, en el botón verde con un guión para alejar o en las flechas verdes para mapas adyacentes.


METAR-TAF: